Time;durP1;ratioP1;P1;durP2;ratioP2;P2;SDS_P1;SDS_P2;PMS_P1;PMS_P2;Temp;Humidity;BMP_temperature;BMP_pressure;BME280_temperature;BME280_humidity;BME280_pressure;Samples;Min_cycle;Max_cycle;Signal;HPM_P1;HPM_P2
2022/01/12 00:00:07;;;;;;;9.18;5.75;;;3.80;94.40;;;;;;2066547;28;20042;-89
2022/01/12 00:01:11;;;;;;;9.27;5.80;;;3.80;94.40;;;;;;2077358;28;20060;-89
2022/01/12 00:02:12;;;;;;;10.00;6.22;;;3.80;94.40;;;;;;2090482;28;20033;-89
2022/01/12 00:03:13;;;;;;;10.57;6.43;;;3.80;94.40;;;;;;2081169;28;20109;-90
2022/01/12 00:04:14;;;;;;;10.40;6.00;;;3.80;94.40;;;;;;2073037;28;20066;-89
2022/01/12 00:05:16;;;;;;;11.32;6.28;;;3.80;94.40;;;;;;2077762;28;20406;-88
2022/01/12 00:06:16;;;;;;;10.52;5.97;;;3.80;94.40;;;;;;2081125;28;20458;-89
2022/01/12 00:07:17;;;;;;;10.60;6.20;;;3.80;94.40;;;;;;2072884;28;20092;-89
2022/01/12 00:08:17;;;;;;;9.98;6.40;;;3.80;94.40;;;;;;2064937;28;20038;-89
2022/01/12 00:09:18;;;;;;;10.57;6.40;;;3.80;94.40;;;;;;2072100;28;20481;-89
2022/01/12 00:10:19;;;;;;;12.55;6.35;;;3.80;94.40;;;;;;2072650;28;20121;-89
2022/01/12 00:11:22;;;;;;;9.65;6.03;;;3.80;94.40;;;;;;2090103;28;20392;-89
2022/01/12 00:12:22;;;;;;;10.13;6.18;;;3.80;94.40;;;;;;2080886;28;20037;-89
2022/01/12 00:13:24;;;;;;;11.25;6.38;;;3.80;94.40;;;;;;2073079;28;20045;-88
2022/01/12 00:14:27;;;;;;;11.32;6.68;;;3.80;94.40;;;;;;2077840;28;20535;-89
2022/01/12 00:15:28;;;;;;;11.48;6.72;;;3.70;94.40;;;;;;2079933;28;20041;-89
2022/01/12 00:16:28;;;;;;;10.18;6.07;;;3.80;94.50;;;;;;2072461;28;20034;-89
2022/01/12 00:17:29;;;;;;;11.85;6.60;;;3.70;94.50;;;;;;2064811;28;20132;-89
2022/01/12 00:18:31;;;;;;;10.70;6.07;;;3.70;94.50;;;;;;2065297;28;20463;-89
2022/01/12 00:19:32;;;;;;;11.57;6.32;;;3.70;94.50;;;;;;2066519;28;20034;-89
2022/01/12 00:20:33;;;;;;;10.45;6.88;;;3.70;94.50;;;;;;2081513;28;20025;-89
2022/01/12 00:21:33;;;;;;;11.07;6.45;;;3.70;94.50;;;;;;2075318;28;20038;-88
2022/01/12 00:22:36;;;;;;;12.48;7.43;;;3.70;94.50;;;;;;2073837;28;20381;-87
2022/01/12 00:23:38;;;;;;;10.88;6.70;;;3.70;94.50;;;;;;2084771;28;20587;-86
2022/01/12 00:26:25;;;;;;;11.40;7.22;;;3.70;94.50;;;;;;2069224;28;20046;-86
2022/01/12 00:34:05;;;;;;;10.55;6.47;;;3.60;94.50;;;;;;2082860;28;20044;-90
2022/01/12 00:35:06;;;;;;;11.32;6.93;;;3.60;94.50;;;;;;2088872;28;20495;-91
2022/01/12 00:36:06;;;;;;;10.25;6.28;;;3.60;94.60;;;;;;2081056;28;20034;-91
2022/01/12 00:37:07;;;;;;;9.75;6.32;;;3.60;94.60;;;;;;2073128;28;20045;-91
2022/01/12 00:38:08;;;;;;;13.05;6.70;;;3.60;94.60;;;;;;2081662;28;20036;-90
2022/01/12 00:39:09;;;;;;;9.80;6.22;;;3.60;94.60;;;;;;2083354;28;20064;-90
2022/01/12 00:40:10;;;;;;;11.52;7.07;;;3.60;94.60;;;;;;2077687;28;20419;-90
2022/01/12 00:41:11;;;;;;;11.98;6.90;;;3.60;94.70;;;;;;2081092;28;20033;-90
2022/01/12 00:42:13;;;;;;;10.32;6.93;;;3.50;94.70;;;;;;2071553;28;20027;-89
2022/01/12 00:43:16;;;;;;;11.27;6.90;;;3.60;94.70;;;;;;2082845;28;20033;-90
2022/01/12 00:44:33;;;;;;;11.50;6.88;;;3.60;94.70;;;;;;2083748;28;20523;-89
2022/01/12 00:45:37;;;;;;;12.32;7.05;;;3.60;94.70;;;;;;2068535;28;20086;-90
2022/01/12 00:46:39;;;;;;;11.75;6.95;;;3.60;94.80;;;;;;2077031;28;20037;-90
2022/01/12 00:47:40;;;;;;;12.68;7.28;;;3.50;94.70;;;;;;2075008;28;20037;-90
2022/01/12 00:48:41;;;;;;;10.93;7.13;;;3.60;94.80;;;;;;2058641;28;20042;-90
2022/01/12 00:49:42;;;;;;;10.95;6.90;;;3.50;94.80;;;;;;2069326;28;20042;-90
2022/01/12 00:50:43;;;;;;;11.98;7.25;;;3.60;94.80;;;;;;2069918;28;20037;-90
2022/01/12 00:51:44;;;;;;;11.55;7.38;;;3.50;94.80;;;;;;2065797;28;20030;-90
2022/01/12 00:52:45;;;;;;;12.80;7.65;;;3.60;94.80;;;;;;2075154;28;20500;-90
2022/01/12 00:53:45;;;;;;;11.95;7.55;;;3.60;94.80;;;;;;2058514;28;20049;-89
2022/01/12 00:54:46;;;;;;;13.00;7.70;;;3.60;94.90;;;;;;2058352;28;20050;-90
2022/01/12 00:55:47;;;;;;;12.85;7.55;;;3.50;94.80;;;;;;2073474;28;20038;-90
2022/01/12 00:56:47;;;;;;;11.63;7.75;;;3.60;94.90;;;;;;2058479;28;20043;-90
2022/01/12 00:57:49;;;;;;;11.40;7.28;;;3.50;94.90;;;;;;2078880;28;20074;-90
2022/01/12 00:58:50;;;;;;;11.27;7.40;;;3.50;94.90;;;;;;2083288;28;20450;-90
2022/01/12 00:59:51;;;;;;;13.57;7.88;;;3.50;94.90;;;;;;2080360;28;20412;-90
2022/01/12 01:00:52;;;;;;;13.23;8.07;;;3.50;94.90;;;;;;2079038;28;20085;-90
2022/01/12 01:01:52;;;;;;;12.02;7.90;;;3.50;94.90;;;;;;2074331;28;20049;-90
2022/01/12 01:02:54;;;;;;;13.20;7.85;;;3.50;94.90;;;;;;2073908;28;20030;-90
2022/01/12 01:03:55;;;;;;;11.80;7.95;;;3.50;95.00;;;;;;2082493;28;20526;-90
2022/01/12 01:04:57;;;;;;;13.50;7.90;;;3.50;95.00;;;;;;2074281;28;20030;-90
2022/01/12 01:05:59;;;;;;;12.85;7.63;;;3.50;95.00;;;;;;2087727;28;20095;-90
2022/01/12 01:06:59;;;;;;;13.13;8.07;;;3.50;95.00;;;;;;2089506;28;20033;-90
2022/01/12 01:08:00;;;;;;;12.90;7.85;;;3.50;95.00;;;;;;2074163;28;20034;-90
2022/01/12 01:09:01;;;;;;;12.80;8.40;;;3.50;95.00;;;;;;2082504;28;20127;-90
2022/01/12 01:10:06;;;;;;;11.65;8.00;;;3.50;95.10;;;;;;2087488;28;20040;-90
2022/01/12 01:11:06;;;;;;;11.45;8.18;;;3.50;95.10;;;;;;2079355;28;20072;-90
2022/01/12 01:12:08;;;;;;;11.80;8.05;;;3.50;95.10;;;;;;2079209;28;20097;-90
2022/01/12 01:13:09;;;;;;;11.52;7.90;;;3.50;95.10;;;;;;2083981;28;20056;-90
2022/01/12 01:14:16;;;;;;;12.60;7.97;;;3.50;95.10;;;;;;2066471;28;20575;-90
2022/01/12 01:15:19;;;;;;;13.13;8.23;;;3.50;95.10;;;;;;2067015;28;20094;-89
2022/01/12 01:16:26;;;;;;;12.55;7.88;;;3.50;95.10;;;;;;2066243;28;20038;-90
2022/01/12 01:25:31;;;;;;;12.98;7.75;;;3.50;95.10;;;;;;2079679;28;20068;-90
2022/01/12 01:26:32;;;;;;;13.57;8.30;;;3.50;95.10;;;;;;2079057;28;20034;-90
2022/01/12 01:27:33;;;;;;;14.45;8.73;;;3.50;95.10;;;;;;2074053;28;20420;-90
2022/01/12 01:28:34;;;;;;;12.27;8.32;;;3.50;95.10;;;;;;2078393;28;20033;-89
2022/01/12 01:29:35;;;;;;;13.82;8.40;;;3.50;95.20;;;;;;2082239;28;20041;-90
2022/01/12 01:30:38;;;;;;;14.30;8.73;;;3.50;95.20;;;;;;2076034;28;20034;-89
2022/01/12 01:31:40;;;;;;;15.13;8.82;;;3.50;95.20;;;;;;2066250;28;20521;-87
2022/01/12 01:32:42;;;;;;;14.57;9.07;;;3.50;95.20;;;;;;2066367;28;20497;-89
2022/01/12 01:33:43;;;;;;;14.93;9.10;;;3.50;95.20;;;;;;2074347;28;20038;-90
2022/01/12 01:34:47;;;;;;;13.20;8.80;;;3.50;95.30;;;;;;2065975;28;20074;-90
2022/01/12 01:35:54;;;;;;;13.68;8.90;;;3.50;95.50;;;;;;2074352;28;20045;-89
2022/01/12 01:36:56;;;;;;;13.85;9.35;;;3.50;95.30;;;;;;2082990;28;20140;-89
2022/01/12 01:38:02;;;;;;;13.43;8.73;;;3.50;95.30;;;;;;2083052;28;20044;-90
2022/01/12 01:39:05;;;;;;;14.02;9.52;;;3.50;95.30;;;;;;2082370;28;20420;-89
2022/01/12 01:40:10;;;;;;;14.57;8.85;;;3.50;95.30;;;;;;2075075;28;20033;-89
2022/01/12 01:41:11;;;;;;;14.95;9.13;;;3.50;95.30;;;;;;2084472;28;20042;-90
2022/01/12 01:42:20;;;;;;;13.80;9.25;;;3.50;95.30;;;;;;2078397;28;20144;-89
2022/01/12 01:53:46;;;;;;;13.15;8.50;;;3.50;95.30;;;;;;2058470;28;20043;-90
2022/01/12 01:54:46;;;;;;;14.60;9.30;;;3.50;95.30;;;;;;2069108;28;20038;-89
2022/01/12 01:55:49;;;;;;;16.00;9.77;;;3.50;95.30;;;;;;2081932;28;20038;-90
2022/01/12 01:56:49;;;;;;;15.10;9.68;;;3.50;95.30;;;;;;2082289;28;20037;-89
2022/01/12 01:57:50;;;;;;;17.55;10.70;;;3.50;95.60;;;;;;2089497;28;20475;-89
2022/01/12 01:58:51;;;;;;;15.82;10.45;;;3.50;95.40;;;;;;2072805;28;20030;-89
2022/01/12 01:59:51;;;;;;;15.77;9.57;;;3.50;95.40;;;;;;2079786;28;20045;-89
2022/01/12 02:00:52;;;;;;;16.95;10.05;;;3.50;95.40;;;;;;2081345;28;20124;-89
2022/01/12 02:01:53;;;;;;;17.30;10.77;;;3.50;95.40;;;;;;2069444;28;20039;-90
2022/01/12 02:02:56;;;;;;;16.45;10.05;;;3.50;95.40;;;;;;2074504;28;20053;-90
2022/01/12 02:04:02;;;;;;;17.88;10.43;;;3.50;95.40;;;;;;2073852;28;20121;-89
2022/01/12 02:05:04;;;;;;;16.42;10.63;;;3.50;95.40;;;;;;2079575;28;20034;-89
2022/01/12 02:06:07;;;;;;;16.63;10.00;;;3.50;95.50;;;;;;2074882;28;20077;-89
2022/01/12 02:07:08;;;;;;;17.33;10.75;;;3.50;95.50;;;;;;2062672;28;20038;-89
2022/01/12 02:08:08;;;;;;;16.13;10.40;;;3.50;95.50;;;;;;2073930;28;20496;-89
2022/01/12 02:09:09;;;;;;;15.95;10.10;;;3.50;95.50;;;;;;2081884;28;20036;-89
2022/01/12 02:10:10;;;;;;;17.48;10.50;;;3.50;95.50;;;;;;2057506;28;20046;-89
2022/01/12 02:11:10;;;;;;;15.05;10.07;;;3.50;95.50;;;;;;2067185;28;20090;-89
2022/01/12 02:12:12;;;;;;;15.98;9.82;;;3.50;95.50;;;;;;2084988;28;20136;-89
2022/01/12 02:13:13;;;;;;;16.13;9.73;;;3.50;95.50;;;;;;2078368;28;20061;-89
2022/01/12 02:14:14;;;;;;;16.42;10.48;;;3.50;95.50;;;;;;2066394;28;20086;-89
2022/01/12 02:15:21;;;;;;;17.30;10.50;;;3.50;95.50;;;;;;2073708;28;20072;-90
2022/01/12 02:16:30;;;;;;;17.58;10.85;;;3.50;95.50;;;;;;2081653;28;20071;-89
2022/01/12 02:17:37;;;;;;;16.05;10.32;;;3.50;95.80;;;;;;2073100;28;20587;-90
2022/01/12 02:36:25;;;;;;;16.90;10.73;;;3.50;95.50;;;;;;2090708;28;20488;-88
2022/01/12 02:40:18;;;;;;;16.42;9.77;;;3.50;95.50;;;;;;2089180;28;20025;-89
2022/01/12 02:41:19;;;;;;;15.45;10.23;;;3.50;95.50;;;;;;2090544;28;20140;-89
2022/01/12 02:42:20;;;;;;;16.45;9.93;;;3.50;95.50;;;;;;2066972;28;20455;-88
2022/01/12 02:51:16;;;;;;;15.95;10.13;;;3.50;95.50;;;;;;2082150;28;20083;-89
2022/01/12 02:54:38;;;;;;;17.70;10.43;;;3.50;95.60;;;;;;2084049;28;20042;-89
2022/01/12 02:55:38;;;;;;;15.65;10.30;;;3.50;95.60;;;;;;2080810;28;20033;-89
2022/01/12 02:56:39;;;;;;;19.50;11.32;;;3.50;95.60;;;;;;2064613;28;20042;-89
2022/01/12 02:57:39;;;;;;;16.17;10.52;;;3.50;95.60;;;;;;2065079;28;20105;-88
2022/01/12 02:58:42;;;;;;;17.67;11.20;;;3.50;95.60;;;;;;2065382;28;20552;-89
2022/01/12 03:00:42;;;;;;;19.85;11.55;;;3.50;95.60;;;;;;2073279;28;20038;-89
2022/01/12 03:02:37;;;;;;;19.00;10.98;;;3.60;95.60;;;;;;2057083;28;20482;-89
2022/01/12 03:03:41;;;;;;;16.08;10.45;;;3.60;95.60;;;;;;2072789;28;20037;-89
2022/01/12 03:04:52;;;;;;;17.65;10.88;;;3.60;95.60;;;;;;2080966;28;20042;-89
2022/01/12 03:06:00;;;;;;;;;;;3.60;95.60;;;;;;2082859;28;20041;-90
2022/01/12 03:07:07;;;;;;;15.85;9.90;;;3.60;95.60;;;;;;2082114;28;19985;-89
2022/01/12 03:08:13;;;;;;;16.75;10.38;;;3.60;95.90;;;;;;2081431;28;20048;-89
2022/01/12 03:09:13;;;;;;;17.60;10.93;;;3.60;95.60;;;;;;2089935;28;20037;-89
2022/01/12 03:10:15;;;;;;;17.38;11.00;;;3.60;95.60;;;;;;2086223;28;20132;-89
2022/01/12 03:11:18;;;;;;;19.08;11.00;;;3.60;95.60;;;;;;2080998;28;20041;-89
2022/01/12 03:12:20;;;;;;;18.38;10.95;;;3.60;95.60;;;;;;2089646;28;20467;-89
2022/01/12 03:13:21;;;;;;;19.05;12.02;;;3.60;95.60;;;;;;2081968;28;20061;-89
2022/01/12 03:14:22;;;;;;;18.98;11.73;;;3.60;95.70;;;;;;2081298;28;20034;-90
2022/01/12 03:15:23;;;;;;;18.35;10.50;;;3.60;95.70;;;;;;2079010;28;20041;-89
2022/01/12 03:16:25;;;;;;;19.15;12.02;;;3.60;95.70;;;;;;2080142;28;20507;-90
2022/01/12 03:17:26;;;;;;;19.25;11.60;;;3.60;95.70;;;;;;2081479;28;20124;-89
2022/01/12 03:18:27;;;;;;;18.20;11.70;;;3.70;95.70;;;;;;2072164;28;20064;-90
2022/01/12 03:19:27;;;;;;;20.92;12.77;;;3.60;95.70;;;;;;2081117;28;20044;-89
2022/01/12 03:20:28;;;;;;;20.80;12.18;;;3.70;95.70;;;;;;2072917;28;20034;-89
2022/01/12 03:21:31;;;;;;;19.38;12.48;;;3.60;96.00;;;;;;2070746;28;20087;-89
2022/01/12 03:22:32;;;;;;;21.42;12.25;;;3.60;95.70;;;;;;2082725;28;20124;-89
2022/01/12 03:23:33;;;;;;;21.38;12.85;;;3.60;95.70;;;;;;2073964;28;20030;-89
2022/01/12 03:24:34;;;;;;;19.73;12.50;;;3.70;95.70;;;;;;2074631;28;20437;-89
2022/01/12 03:25:34;;;;;;;20.98;12.77;;;3.60;95.70;;;;;;2089375;28;20098;-89
2022/01/12 03:26:35;;;;;;;22.10;12.43;;;3.70;95.70;;;;;;2081224;28;20056;-89
2022/01/12 03:27:37;;;;;;;21.90;13.38;;;3.70;95.80;;;;;;2074077;28;20025;-88
2022/01/12 03:28:40;;;;;;;21.48;13.38;;;3.70;95.80;;;;;;2081618;28;20049;-89
2022/01/12 03:29:49;;;;;;;23.70;13.75;;;3.70;95.80;;;;;;2077120;28;20034;-89
2022/01/12 03:30:56;;;;;;;22.48;13.40;;;3.70;95.80;;;;;;2081606;28;20496;-89
2022/01/12 03:31:57;;;;;;;21.85;13.57;;;3.70;95.80;;;;;;2090816;28;20028;-89
2022/01/12 03:33:10;;;;;;;22.52;13.30;;;3.70;95.70;;;;;;2086826;28;20037;-89
2022/01/12 03:34:33;;;;;;;20.85;12.60;;;3.70;95.70;;;;;;2085893;28;20612;-89
2022/01/12 03:37:38;;;;;;;20.05;11.35;;;3.70;95.70;;;;;;2074214;28;20016;-89
2022/01/12 03:38:37;;;;;;;18.02;11.13;;;3.70;95.70;;;;;;2080687;28;20029;-90
2022/01/12 03:39:37;;;;;;;22.20;12.38;;;3.60;95.60;;;;;;2089393;28;20137;-90
2022/01/12 03:40:38;;;;;;;20.35;12.32;;;3.70;95.60;;;;;;2066834;28;20086;-89
2022/01/12 03:41:41;;;;;;;20.55;12.82;;;3.70;95.60;;;;;;2056971;28;20035;-90
2022/01/12 03:42:42;;;;;;;20.92;12.02;;;3.70;95.60;;;;;;2067857;28;20034;-89
2022/01/12 03:43:43;;;;;;;18.58;12.10;;;3.70;95.60;;;;;;2089453;28;20053;-89
2022/01/12 03:44:44;;;;;;;23.20;13.48;;;3.70;95.60;;;;;;2065724;28;20077;-89
2022/01/12 03:45:48;;;;;;;21.48;13.30;;;3.70;95.70;;;;;;2073102;28;20042;-89
2022/01/12 03:46:52;;;;;;;21.48;13.23;;;3.70;95.70;;;;;;2081603;28;20042;-90
2022/01/12 03:47:53;;;;;;;23.83;14.20;;;3.70;95.70;;;;;;2081205;28;20048;-89
2022/01/12 03:48:55;;;;;;;20.77;13.65;;;3.70;95.70;;;;;;2089545;28;20518;-90
2022/01/12 03:49:55;;;;;;;21.77;12.70;;;3.70;95.70;;;;;;2082549;28;20384;-90
2022/01/12 03:50:56;;;;;;;21.08;13.15;;;3.70;95.70;;;;;;2073457;28;20083;-90
2022/01/12 03:51:57;;;;;;;20.67;13.30;;;3.70;96.00;;;;;;2081008;28;20072;-89
2022/01/12 03:52:57;;;;;;;22.92;14.05;;;3.70;95.70;;;;;;2087902;28;20124;-90
2022/01/12 03:53:58;;;;;;;20.60;13.05;;;3.70;95.70;;;;;;2072726;28;20535;-89
2022/01/12 03:54:59;;;;;;;22.83;13.73;;;3.70;95.70;;;;;;2063912;28;20126;-91
2022/01/12 03:56:00;;;;;;;20.00;13.43;;;3.70;95.70;;;;;;2082064;28;20050;-89
2022/01/12 03:57:00;;;;;;;21.52;13.43;;;3.70;95.70;;;;;;2089334;28;20085;-88
2022/01/12 03:58:01;;;;;;;22.50;13.60;;;3.70;95.70;;;;;;2086073;28;20047;-89
2022/01/12 03:59:02;;;;;;;23.58;14.25;;;3.70;95.70;;;;;;2081182;28;20116;-89
2022/01/12 04:00:04;;;;;;;23.25;14.35;;;3.70;95.80;;;;;;2068909;28;20034;-89
2022/01/12 04:01:05;;;;;;;23.30;14.18;;;3.70;95.80;;;;;;2057003;28;20130;-89
2022/01/12 04:02:06;;;;;;;19.95;13.02;;;3.70;95.80;;;;;;2080184;28;20040;-88
2022/01/12 04:03:07;;;;;;;21.52;13.70;;;3.70;95.80;;;;;;2074960;28;20080;-89
2022/01/12 04:04:16;;;;;;;21.35;14.30;;;3.70;95.80;;;;;;2081393;28;20195;-89
2022/01/12 04:08:19;;;;;;;19.75;13.15;;;3.70;95.80;;;;;;2073163;28;20069;-89
2022/01/12 04:09:18;;;;;;;19.17;12.65;;;3.70;95.80;;;;;;2081055;28;20106;-89
2022/01/12 04:10:19;;;;;;;20.20;12.60;;;3.70;95.80;;;;;;2081356;28;20093;-89
2022/01/12 04:11:20;;;;;;;21.05;13.10;;;3.70;95.80;;;;;;2076999;28;20022;-89
2022/01/12 04:12:21;;;;;;;19.45;12.73;;;3.70;95.80;;;;;;2072540;28;20038;-90
2022/01/12 04:13:23;;;;;;;20.58;13.07;;;3.70;95.80;;;;;;2072094;28;20042;-90
2022/01/12 04:14:24;;;;;;;19.73;13.38;;;3.70;95.80;;;;;;2075558;28;20034;-90
2022/01/12 04:15:24;;;;;;;20.95;13.02;;;3.70;95.80;;;;;;2090955;28;20099;-89
2022/01/12 04:16:25;;;;;;;20.92;12.68;;;3.70;95.80;;;;;;2076030;28;20038;-87
2022/01/12 04:17:25;;;;;;;20.75;12.75;;;3.70;95.80;;;;;;2075148;28;20496;-87
2022/01/12 04:18:26;;;;;;;19.90;12.32;;;3.70;95.80;;;;;;2069424;28;20026;-87
2022/01/12 04:19:27;;;;;;;18.92;12.00;;;3.70;95.90;;;;;;2083240;28;20037;-86
2022/01/12 04:20:28;;;;;;;19.50;13.10;;;3.70;95.90;;;;;;2092342;28;20032;-86
2022/01/12 04:21:30;;;;;;;20.85;13.40;;;3.70;95.90;;;;;;2068095;28;20094;-86
2022/01/12 04:23:50;;;;;;;20.85;12.90;;;3.70;95.90;;;;;;2092678;28;20033;-87
2022/01/12 04:24:50;;;;;;;20.98;12.60;;;3.70;95.90;;;;;;2078125;28;20046;-89
2022/01/12 04:25:59;;;;;;;22.00;13.30;;;3.70;95.90;;;;;;2082579;28;20045;-89
2022/01/12 04:26:59;;;;;;;21.83;13.73;;;3.70;95.90;;;;;;2074525;28;20484;-89
2022/01/12 04:28:00;;;;;;;22.52;13.85;;;3.70;95.90;;;;;;2076708;28;20294;-89
2022/01/12 04:29:01;;;;;;;20.92;13.45;;;3.60;95.90;;;;;;2073087;28;20088;-89
2022/01/12 04:30:02;;;;;;;19.50;12.55;;;3.60;95.90;;;;;;2067941;28;20042;-89
2022/01/12 04:31:03;;;;;;;21.88;13.60;;;3.60;95.90;;;;;;2087086;28;20047;-90
2022/01/12 04:32:04;;;;;;;21.17;13.18;;;3.70;95.90;;;;;;2082527;28;20056;-89
2022/01/12 04:33:05;;;;;;;20.08;12.45;;;3.70;95.90;;;;;;2074151;28;20528;-89
2022/01/12 04:34:06;;;;;;;22.27;13.20;;;3.60;95.90;;;;;;2074365;28;20034;-89
2022/01/12 04:35:07;;;;;;;20.77;13.13;;;3.60;96.20;;;;;;2075984;28;20053;-89
2022/01/12 04:36:09;;;;;;;20.10;13.20;;;3.70;96.20;;;;;;2079927;28;20068;-89
2022/01/12 04:37:10;;;;;;;19.63;13.32;;;3.70;96.00;;;;;;2079860;28;20037;-90
2022/01/12 04:38:11;;;;;;;19.55;13.48;;;3.70;96.00;;;;;;2090053;28;20128;-89
2022/01/12 04:39:11;;;;;;;21.08;13.07;;;3.70;96.00;;;;;;2073970;28;20073;-89
2022/01/12 04:40:12;;;;;;;17.88;12.23;;;3.70;96.00;;;;;;2066429;28;20037;-88
2022/01/12 04:41:13;;;;;;;21.95;13.85;;;3.70;96.00;;;;;;2058340;28;20043;-88
2022/01/12 04:42:14;;;;;;;20.58;12.98;;;3.70;96.00;;;;;;2057748;28;20041;-89
2022/01/12 04:43:16;;;;;;;22.08;14.57;;;3.70;96.00;;;;;;2074366;28;20470;-89
2022/01/12 04:44:17;;;;;;;21.40;13.18;;;3.70;96.00;;;;;;2080696;28;20033;-88
2022/01/12 04:45:32;;;;;;;19.35;13.07;;;3.70;96.00;;;;;;2072419;28;20034;-89
2022/01/12 04:46:49;;;;;;;20.70;13.25;;;3.70;96.00;;;;;;2071514;28;20041;-89
2022/01/12 04:49:19;;;;;;;20.00;12.85;;;3.70;95.90;;;;;;2091445;28;20144;-89
2022/01/12 04:50:17;;;;;;;19.75;12.48;;;3.70;95.90;;;;;;2074365;28;20046;-89
2022/01/12 04:51:19;;;;;;;19.17;12.10;;;3.70;95.90;;;;;;2069098;28;20045;-89
2022/01/12 04:52:19;;;;;;;22.30;13.00;;;3.70;95.90;;;;;;2073954;28;20460;-87
2022/01/12 04:53:21;;;;;;;21.77;13.50;;;3.70;95.90;;;;;;2091229;28;20037;-88
2022/01/12 04:54:22;;;;;;;20.40;13.23;;;3.70;95.90;;;;;;2080185;28;20041;-88
2022/01/12 04:55:22;;;;;;;18.58;12.40;;;3.70;96.00;;;;;;2074453;28;20034;-89
2022/01/12 04:56:25;;;;;;;21.40;13.30;;;3.70;96.00;;;;;;2082535;28;20034;-88
2022/01/12 04:57:26;;;;;;;22.17;13.48;;;3.70;96.00;;;;;;2078318;28;20034;-88
2022/01/12 04:58:27;;;;;;;19.98;13.57;;;3.70;96.00;;;;;;2083795;28;20155;-88
2022/01/12 04:59:28;;;;;;;20.23;13.43;;;3.70;96.00;;;;;;2085039;28;20065;-89
2022/01/12 05:00:30;;;;;;;19.92;12.80;;;3.70;96.00;;;;;;2082363;28;20038;-89
2022/01/12 05:01:36;;;;;;;20.42;12.60;;;3.70;96.00;;;;;;2079734;28;20041;-88
2022/01/12 05:06:52;;;;;;;18.67;12.18;;;3.70;96.00;;;;;;2083597;28;20043;-90
2022/01/12 05:08:10;;;;;;;19.55;11.95;;;3.80;96.00;;;;;;2081042;28;20064;-88
2022/01/12 05:13:30;;;;;;;18.15;11.38;;;3.70;95.90;;;;;;2057904;28;20097;-89
2022/01/12 05:14:38;;;;;;;17.98;11.85;;;3.70;95.90;;;;;;2047396;28;20070;-89
2022/01/12 05:15:39;;;;;;;17.70;11.30;;;3.70;95.90;;;;;;2045729;28;20082;-89
2022/01/12 05:16:40;;;;;;;21.23;12.75;;;3.70;95.90;;;;;;2079812;28;20048;-90
2022/01/12 05:17:40;;;;;;;18.75;12.63;;;3.70;96.00;;;;;;2073436;28;20029;-89
2022/01/12 05:18:44;;;;;;;20.60;12.77;;;3.70;96.00;;;;;;2074737;28;20034;-89
2022/01/12 05:19:44;;;;;;;19.75;12.45;;;3.70;96.00;;;;;;2085944;28;20376;-89
2022/01/12 05:20:46;;;;;;;20.63;12.85;;;3.70;96.00;;;;;;2098681;28;20056;-89
2022/01/12 05:21:47;;;;;;;19.45;12.35;;;3.70;96.00;;;;;;2090317;28;20037;-88
2022/01/12 05:22:48;;;;;;;20.80;12.82;;;3.70;96.00;;;;;;2080365;28;20069;-88
2022/01/12 05:23:49;;;;;;;21.30;13.02;;;3.70;96.00;;;;;;2068589;28;20161;-89
2022/01/12 05:24:50;;;;;;;21.02;13.48;;;3.70;96.00;;;;;;2068496;28;20030;-88
2022/01/12 05:25:52;;;;;;;21.08;13.00;;;3.70;96.00;;;;;;2073759;28;20042;-88
2022/01/12 05:26:53;;;;;;;20.70;13.25;;;3.70;96.00;;;;;;2073296;28;20408;-89
2022/01/12 05:27:54;;;;;;;22.48;13.65;;;3.70;96.00;;;;;;2082185;28;20037;-90
2022/01/12 05:28:54;;;;;;;20.85;13.63;;;3.80;96.00;;;;;;2074207;28;20305;-90
2022/01/12 05:29:55;;;;;;;22.02;13.75;;;3.80;96.00;;;;;;2066009;28;20097;-90
2022/01/12 05:30:57;;;;;;;19.98;13.02;;;3.70;96.00;;;;;;2081838;28;20067;-89
2022/01/12 05:31:57;;;;;;;20.80;13.32;;;3.80;96.00;;;;;;2079916;28;20116;-88
2022/01/12 05:32:58;;;;;;;21.05;13.85;;;3.80;96.00;;;;;;2090636;28;20418;-88
2022/01/12 05:34:00;;;;;;;20.88;13.05;;;3.80;96.00;;;;;;2088581;28;20059;-88
2022/01/12 05:35:04;;;;;;;21.98;13.93;;;3.80;96.10;;;;;;2080879;28;20136;-88
2022/01/12 05:36:06;;;;;;;21.42;13.20;;;3.80;96.10;;;;;;2091264;28;20048;-88
2022/01/12 05:37:07;;;;;;;21.92;14.02;;;3.80;96.00;;;;;;2082154;28;20512;-89
2022/01/12 05:38:08;;;;;;;20.45;13.60;;;3.80;96.00;;;;;;2072416;28;20038;-88
2022/01/12 05:39:09;;;;;;;20.23;12.38;;;3.80;96.00;;;;;;2073814;28;20060;-87
2022/01/12 05:40:11;;;;;;;21.15;12.98;;;3.80;96.00;;;;;;2065367;28;20464;-87
2022/01/12 05:41:12;;;;;;;22.60;14.02;;;3.80;96.00;;;;;;2071091;28;20459;-88
2022/01/12 05:42:13;;;;;;;22.60;13.45;;;3.80;96.00;;;;;;2082815;28;20033;-87
2022/01/12 05:43:16;;;;;;;21.20;13.18;;;3.80;96.00;;;;;;2078549;28;20184;-89
2022/01/12 05:44:17;;;;;;;19.45;12.13;;;3.80;96.00;;;;;;2082823;28;20561;-89
2022/01/12 05:45:19;;;;;;;20.17;12.82;;;3.80;96.00;;;;;;2094566;28;20041;-87
2022/01/12 05:46:24;;;;;;;22.65;13.98;;;3.80;96.00;;;;;;2100377;28;20056;-88
2022/01/12 05:50:21;;;;;;;21.27;12.70;;;3.80;96.00;;;;;;2083571;28;20129;-88
2022/01/12 05:51:22;;;;;;;19.67;12.88;;;3.80;96.00;;;;;;2073552;28;20045;-88
2022/01/12 05:52:23;;;;;;;20.88;12.85;;;3.80;96.00;;;;;;2076870;28;20025;-88
2022/01/12 05:53:24;;;;;;;20.65;12.63;;;3.80;96.00;;;;;;2086692;28;20060;-89
2022/01/12 05:54:24;;;;;;;22.20;13.25;;;3.80;96.00;;;;;;2072453;28;20138;-88
2022/01/12 05:55:25;;;;;;;21.17;12.85;;;3.80;96.00;;;;;;2069895;28;20037;-88
2022/01/12 05:56:26;;;;;;;21.40;13.45;;;3.80;96.00;;;;;;2083375;28;20044;-87
2022/01/12 05:57:28;;;;;;;22.38;14.15;;;3.80;96.30;;;;;;2082479;28;20033;-87
2022/01/12 05:58:29;;;;;;;20.38;12.38;;;3.80;96.10;;;;;;2073732;28;20559;-88
2022/01/12 05:59:29;;;;;;;21.08;13.30;;;3.80;96.10;;;;;;2075532;28;20037;-90
2022/01/12 06:00:30;;;;;;;20.55;12.70;;;3.80;96.10;;;;;;2077232;28;20210;-87
2022/01/12 06:01:31;;;;;;;24.05;14.40;;;3.80;96.10;;;;;;2080618;28;20029;-88
2022/01/12 06:02:32;;;;;;;23.45;14.00;;;3.80;96.10;;;;;;2089899;28;20124;-87
2022/01/12 06:03:33;;;;;;;22.63;13.43;;;3.80;96.10;;;;;;2088444;28;20021;-88
2022/01/12 06:04:33;;;;;;;22.65;13.18;;;3.80;96.10;;;;;;2078428;28;20033;-87
2022/01/12 06:05:34;;;;;;;22.05;12.98;;;3.80;96.10;;;;;;2064138;28;20046;-83
2022/01/12 06:06:35;;;;;;;20.63;13.43;;;3.80;96.10;;;;;;2073586;28;20077;-89
2022/01/12 06:07:35;;;;;;;25.10;14.10;;;3.80;96.10;;;;;;2084567;28;20069;-88
2022/01/12 06:08:36;;;;;;;21.25;13.20;;;3.80;96.10;;;;;;2071198;28;20031;-87
2022/01/12 06:09:37;;;;;;;21.88;14.15;;;3.80;96.10;;;;;;2061271;28;20039;-88
2022/01/12 06:10:37;;;;;;;21.55;13.82;;;3.90;96.40;;;;;;2067635;28;20049;-88
2022/01/12 06:11:38;;;;;;;22.90;13.25;;;3.80;96.10;;;;;;2074070;28;20116;-86
2022/01/12 06:12:40;;;;;;;23.50;14.80;;;3.80;96.10;;;;;;2075068;28;20034;-86
2022/01/12 06:13:41;;;;;;;24.75;14.95;;;3.80;96.10;;;;;;2072107;28;20034;-87
2022/01/12 06:14:41;;;;;;;21.33;13.10;;;3.80;96.10;;;;;;2077705;28;20136;-86
2022/01/12 06:15:42;;;;;;;23.45;13.88;;;3.90;96.40;;;;;;2084562;28;20044;-86
2022/01/12 06:16:43;;;;;;;23.20;13.60;;;3.90;96.10;;;;;;2071934;28;20030;-86
2022/01/12 06:17:43;;;;;;;22.27;13.90;;;3.90;96.10;;;;;;2056257;28;20043;-86
2022/01/12 06:18:44;;;;;;;23.13;13.95;;;3.90;96.10;;;;;;2065342;28;20050;-86
2022/01/12 06:19:45;;;;;;;26.05;13.95;;;3.90;96.10;;;;;;2089817;28;20080;-86
2022/01/12 06:20:45;;;;;;;22.52;13.65;;;3.90;96.10;;;;;;2088045;28;20033;-85
2022/01/12 06:21:46;;;;;;;22.92;14.38;;;3.90;96.10;;;;;;2087937;28;20090;-86
2022/01/12 06:22:47;;;;;;;21.38;13.10;;;3.90;96.10;;;;;;2095756;28;20497;-88
2022/01/12 06:23:47;;;;;;;24.60;14.20;;;3.90;96.10;;;;;;2074053;28;20465;-87
2022/01/12 06:24:48;;;;;;;20.90;13.02;;;3.90;96.10;;;;;;2073361;28;20054;-88
2022/01/12 06:25:48;;;;;;;21.23;13.30;;;3.90;96.20;;;;;;2089553;28;20064;-88
2022/01/12 06:26:49;;;;;;;21.27;12.90;;;3.90;96.10;;;;;;2073262;28;20538;-87
2022/01/12 06:27:53;;;;;;;20.83;13.30;;;3.90;96.20;;;;;;2073405;28;20038;-88
2022/01/12 06:29:22;;;;;;;22.20;13.10;;;3.90;96.20;;;;;;2057823;28;20035;-86
2022/01/12 06:31:28;;;;;;;21.92;13.63;;;3.90;96.10;;;;;;2076440;28;20499;-88
2022/01/12 06:32:32;;;;;;;22.10;12.55;;;3.90;96.10;;;;;;2067263;28;20038;-88
2022/01/12 06:33:33;;;;;;;19.90;12.68;;;3.90;96.10;;;;;;2074138;28;20030;-89
2022/01/12 06:34:34;;;;;;;22.60;12.70;;;3.90;96.10;;;;;;2073397;28;20105;-89
2022/01/12 06:35:34;;;;;;;21.17;12.63;;;3.90;96.10;;;;;;2069033;28;20038;-88
2022/01/12 06:36:35;;;;;;;20.13;11.82;;;3.90;96.10;;;;;;2062684;28;20050;-89
2022/01/12 06:37:35;;;;;;;20.40;12.38;;;3.90;96.10;;;;;;2070988;28;20045;-89
2022/01/12 06:38:36;;;;;;;20.02;11.95;;;3.90;96.10;;;;;;2068183;28;20034;-88
2022/01/12 06:39:37;;;;;;;20.60;12.13;;;4.00;96.20;;;;;;2071128;28;20036;-88